createdAt,value
2019-04-03T00:01:25.490Z,9.84
2019-04-03T00:03:55.275Z,9.90
2019-04-03T00:06:24.949Z,9.85
2019-04-03T00:08:54.677Z,9.82
2019-04-03T00:11:24.434Z,9.88
2019-04-03T00:13:54.128Z,9.91
2019-04-03T00:16:23.797Z,9.95
2019-04-03T00:18:53.447Z,9.90
2019-04-03T00:21:23.165Z,9.90
2019-04-03T00:23:53.135Z,10.00
2019-04-03T00:26:23.022Z,10.06
2019-04-03T00:28:52.935Z,9.72
2019-04-03T00:31:23.417Z,9.25
2019-04-03T00:33:53.891Z,8.84
2019-04-03T00:36:23.914Z,8.59
2019-04-03T00:38:54.284Z,8.46
2019-04-03T00:41:25.076Z,8.36
2019-04-03T00:43:55.095Z,8.39
2019-04-03T00:46:25.216Z,8.47
2019-04-03T00:48:55.727Z,8.65
2019-04-03T00:51:27.407Z,8.84
2019-04-03T00:53:58.666Z,9.03
2019-04-03T00:56:28.343Z,9.19
2019-04-03T00:58:58.010Z,9.32
2019-04-03T01:01:27.777Z,9.44
2019-04-03T01:03:58.858Z,9.53
2019-04-03T01:06:29.077Z,9.62
2019-04-03T01:08:59.875Z,9.71
2019-04-03T01:11:30.639Z,9.82
2019-04-03T01:14:01.669Z,9.91
2019-04-03T01:16:33.096Z,10.01
2019-04-03T01:19:05.194Z,10.10
2019-04-03T01:21:37.237Z,10.18
2019-04-03T01:24:08.295Z,10.23
2019-04-03T01:26:40.409Z,10.21
2019-04-03T01:29:10.643Z,10.23
2019-04-03T01:31:41.256Z,10.27
2019-04-03T01:34:11.099Z,10.34
2019-04-03T01:36:40.876Z,10.42
2019-04-03T01:39:10.752Z,10.48
2019-04-03T01:41:40.493Z,10.50
2019-04-03T01:44:10.263Z,10.53
2019-04-03T01:46:40.135Z,10.57
2019-04-03T01:49:10.055Z,10.63
2019-04-03T01:51:39.765Z,10.69
2019-04-03T01:54:09.459Z,10.66
2019-04-03T01:56:39.188Z,10.64
2019-04-03T01:59:08.892Z,10.52
2019-04-03T02:01:39.137Z,10.46
2019-04-03T02:04:09.114Z,10.41
2019-04-03T02:06:38.802Z,10.42
2019-04-03T02:09:10.414Z,10.42
2019-04-03T02:11:40.177Z,10.46
2019-04-03T02:14:09.869Z,10.50
2019-04-03T02:16:39.589Z,10.51
2019-04-03T02:19:09.351Z,10.53
2019-04-03T02:21:40.095Z,10.43
2019-04-03T02:24:10.114Z,10.33
2019-04-03T02:26:39.949Z,10.22
2019-04-03T02:29:09.697Z,10.15
2019-04-03T02:31:39.706Z,10.13
2019-04-03T02:34:09.551Z,10.09
2019-04-03T02:36:43.313Z,10.04
2019-04-03T02:39:10.990Z,10.03
2019-04-03T02:41:40.738Z,10.14
2019-04-03T02:44:10.753Z,10.31
2019-04-03T02:46:40.515Z,10.44
2019-04-03T02:49:11.060Z,10.51
2019-04-03T02:51:43.699Z,10.51
2019-04-03T02:54:29.840Z,10.42
2019-04-03T02:56:59.803Z,10.38
2019-04-03T02:59:29.752Z,10.31
2019-04-03T03:01:59.536Z,10.29
2019-04-03T03:04:29.410Z,10.28
2019-04-03T03:06:59.137Z,10.34
2019-04-03T03:09:30.761Z,10.44
2019-04-03T03:12:01.990Z,10.46
2019-04-03T03:14:31.941Z,10.49
2019-04-03T03:17:02.221Z,10.47
2019-04-03T03:19:33.374Z,10.34
2019-04-03T03:22:04.017Z,10.22
2019-04-03T03:24:38.721Z,10.22
2019-04-03T03:27:10.273Z,10.25
2019-04-03T03:29:40.975Z,10.29
2019-04-03T03:32:18.708Z,10.33
2019-04-03T03:34:54.046Z,10.39
2019-04-03T03:37:15.621Z,10.38
2019-04-03T03:39:45.873Z,10.24
2019-04-03T03:42:16.406Z,10.02
2019-04-03T03:44:46.992Z,9.93
2019-04-03T03:47:18.354Z,9.95
2019-04-03T03:49:50.896Z,10.02
2019-04-03T03:52:22.199Z,10.01
2019-04-03T03:54:52.554Z,9.81
2019-04-03T03:57:22.854Z,9.64
2019-04-03T03:59:52.890Z,9.53
2019-04-03T04:02:23.794Z,9.47
2019-04-03T04:04:53.650Z,9.44
2019-04-03T04:07:23.831Z,9.38
2019-04-03T04:09:54.111Z,9.36
2019-04-03T04:12:24.672Z,9.33
2019-04-03T04:14:56.879Z,9.31
2019-04-03T04:17:27.031Z,9.17
2019-04-03T04:19:57.769Z,8.99
2019-04-03T04:22:28.252Z,8.95
2019-04-03T04:25:00.837Z,9.06
2019-04-03T04:27:33.470Z,9.26
2019-04-03T04:30:02.445Z,9.47
2019-04-03T04:32:32.275Z,9.67
2019-04-03T04:35:01.999Z,9.80
2019-04-03T04:37:31.713Z,9.91
2019-04-03T04:40:01.510Z,10.03
2019-04-03T04:42:31.453Z,10.07
2019-04-03T04:45:02.673Z,10.09
2019-04-03T04:47:32.370Z,10.12
2019-04-03T04:50:02.201Z,10.18
2019-04-03T04:52:31.927Z,10.21
2019-04-03T04:55:02.789Z,10.25
2019-04-03T04:57:32.568Z,10.30
2019-04-03T05:00:02.379Z,10.30
2019-04-03T05:02:32.262Z,10.32
2019-04-03T05:05:01.934Z,10.37
2019-04-03T05:07:31.613Z,10.36
2019-04-03T05:10:01.319Z,10.34
2019-04-03T05:12:31.146Z,10.35
2019-04-03T05:15:00.997Z,10.36
2019-04-03T05:17:30.766Z,10.33
2019-04-03T05:20:00.496Z,10.30
2019-04-03T05:22:31.162Z,10.27
2019-04-03T05:25:00.892Z,10.28
2019-04-03T05:27:33.334Z,10.25
2019-04-03T05:30:02.136Z,10.24
2019-04-03T05:32:31.974Z,10.25
2019-04-03T05:35:01.696Z,10.28
2019-04-03T05:37:31.662Z,10.30
2019-04-03T05:40:01.385Z,10.35
2019-04-03T05:42:31.086Z,10.40
2019-04-03T05:45:03.629Z,10.46
2019-04-03T05:47:32.200Z,10.55
2019-04-03T05:50:02.299Z,10.60
2019-04-03T05:52:33.152Z,10.67
2019-04-03T05:55:03.811Z,10.71
2019-04-03T05:57:33.633Z,10.73
2019-04-03T06:00:06.138Z,10.72
2019-04-03T06:02:35.176Z,10.67
2019-04-03T06:05:06.708Z,10.60
2019-04-03T06:07:36.886Z,10.55
2019-04-03T06:10:07.733Z,10.51
2019-04-03T06:12:37.848Z,10.50
2019-04-03T06:15:10.257Z,10.51
2019-04-03T06:17:40.298Z,10.53
2019-04-03T06:20:11.590Z,10.51
2019-04-03T06:22:41.329Z,10.54
2019-04-03T06:25:13.986Z,10.55
2019-04-03T06:27:45.756Z,10.56
2019-04-03T06:30:15.609Z,10.59
2019-04-03T06:32:45.462Z,10.64
2019-04-03T06:35:16.238Z,10.71
2019-04-03T06:37:45.977Z,10.78
2019-04-03T06:40:15.961Z,10.87
2019-04-03T06:42:45.759Z,10.95
2019-04-03T06:45:16.157Z,11.01
2019-04-03T06:47:46.960Z,11.08
2019-04-03T06:50:17.555Z,11.15
2019-04-03T06:52:47.755Z,11.24
2019-04-03T06:55:17.421Z,11.36
2019-04-03T06:57:47.391Z,11.47
2019-04-03T07:00:17.316Z,11.57
2019-04-03T07:02:47.026Z,11.67
2019-04-03T07:05:16.724Z,11.75
2019-04-03T07:07:46.439Z,11.81
2019-04-03T07:10:25.046Z,11.84
2019-04-03T07:12:48.122Z,11.82
2019-04-03T07:15:18.436Z,11.86
2019-04-03T07:17:48.203Z,11.87
2019-04-03T07:20:20.114Z,11.93
2019-04-03T07:22:49.580Z,12.02
2019-04-03T07:25:19.451Z,12.11
2019-04-03T07:27:49.157Z,12.15
2019-04-03T07:30:19.973Z,12.16
2019-04-03T07:32:50.554Z,12.13
2019-04-03T07:35:20.236Z,12.13
2019-04-03T07:37:50.988Z,12.09
2019-04-03T07:40:22.304Z,12.02
2019-04-03T07:42:52.266Z,11.96
2019-04-03T07:45:22.082Z,11.87
2019-04-03T07:47:51.798Z,11.82
2019-04-03T07:50:21.583Z,11.77
2019-04-03T07:52:51.283Z,11.73
2019-04-03T07:55:23.543Z,11.67
2019-04-03T07:57:52.385Z,11.58
2019-04-03T08:00:22.672Z,11.49
2019-04-03T08:02:52.663Z,11.38
2019-04-03T08:05:22.359Z,11.27
2019-04-03T08:07:52.053Z,11.18
2019-04-03T08:10:21.859Z,11.14
2019-04-03T08:12:51.888Z,11.14
2019-04-03T08:15:21.589Z,11.13
2019-04-03T08:17:51.521Z,11.23
2019-04-03T08:20:21.574Z,11.33
2019-04-03T08:22:51.276Z,11.42
2019-04-03T08:25:20.985Z,11.49
2019-04-03T08:27:50.756Z,11.55
2019-04-03T08:30:21.284Z,11.71
2019-04-03T08:32:51.080Z,11.85
2019-04-03T08:35:23.643Z,12.00
2019-04-03T08:37:52.304Z,12.05
2019-04-03T08:40:22.039Z,12.15
2019-04-03T08:42:52.226Z,12.14
2019-04-03T08:45:22.275Z,12.11
2019-04-03T08:47:51.916Z,12.10
2019-04-03T08:50:21.783Z,12.14
2019-04-03T08:52:51.485Z,12.19
2019-04-03T08:55:21.227Z,12.15
2019-04-03T08:57:52.469Z,12.14
2019-04-03T09:00:22.674Z,12.09
2019-04-03T09:02:52.496Z,12.05
2019-04-03T09:05:22.376Z,12.05
2019-04-03T09:07:55.261Z,12.00
2019-04-03T09:10:23.748Z,11.94
2019-04-03T09:12:53.592Z,11.91
2019-04-03T09:15:23.467Z,11.91
2019-04-03T09:17:53.416Z,11.86
2019-04-03T09:20:23.241Z,11.96
2019-04-03T09:22:54.015Z,12.07
2019-04-03T09:25:24.277Z,12.13
2019-04-03T09:27:53.954Z,12.15
2019-04-03T09:30:24.412Z,12.20
2019-04-03T09:32:54.450Z,12.34
2019-04-03T09:35:24.360Z,12.80
2019-04-03T09:37:54.315Z,13.51
2019-04-03T09:40:24.608Z,14.17
2019-04-03T09:42:54.436Z,14.63
2019-04-03T09:45:24.150Z,14.84
2019-04-03T09:47:53.832Z,14.88
2019-04-03T09:50:23.788Z,14.72
2019-04-03T09:52:54.883Z,14.35
2019-04-03T09:55:25.079Z,14.04
2019-04-03T09:57:54.782Z,13.89
2019-04-03T10:00:26.599Z,13.84
2019-04-03T10:02:56.396Z,14.06
2019-04-03T10:05:28.349Z,14.38
2019-04-03T10:07:57.527Z,14.72
2019-04-03T10:10:27.449Z,14.83
2019-04-03T10:12:57.208Z,14.89
2019-04-03T10:15:27.274Z,14.89
2019-04-03T10:17:57.131Z,14.91
2019-04-03T10:20:27.140Z,14.93
2019-04-03T10:22:57.047Z,15.05
2019-04-03T10:25:26.966Z,15.06
2019-04-03T10:27:56.864Z,15.01
2019-04-03T10:30:27.101Z,14.82
2019-04-03T10:32:59.546Z,14.54
2019-04-03T10:35:28.614Z,14.27
2019-04-03T10:37:58.301Z,14.15
2019-04-03T10:40:28.002Z,13.97
2019-04-03T10:43:00.082Z,13.91
2019-04-03T10:45:29.510Z,13.91
2019-04-03T10:47:59.256Z,13.93
2019-04-03T10:50:28.985Z,14.09
2019-04-03T10:52:59.250Z,14.73
2019-04-03T10:55:29.594Z,16.56
2019-04-03T10:58:01.583Z,18.28
2019-04-03T11:00:30.926Z,18.67
2019-04-03T11:03:00.845Z,18.33
2019-04-03T11:05:30.683Z,17.57
2019-04-03T11:08:00.455Z,16.94
2019-04-03T11:10:30.163Z,16.50
2019-04-03T11:13:00.904Z,16.18
2019-04-03T11:15:31.422Z,16.17
2019-04-03T11:18:01.096Z,16.07
2019-04-03T11:20:30.809Z,15.94
2019-04-03T11:23:06.364Z,15.87
2019-04-03T11:25:31.997Z,15.75
2019-04-03T11:28:05.126Z,15.63
2019-04-03T11:30:33.178Z,15.52
2019-04-03T11:33:02.961Z,15.35
2019-04-03T11:35:32.786Z,15.31
2019-04-03T11:38:13.088Z,15.42
2019-04-03T11:40:34.013Z,15.79
2019-04-03T11:43:03.699Z,16.16
2019-04-03T11:45:33.729Z,16.28
2019-04-03T11:48:03.741Z,16.33
2019-04-03T11:50:33.552Z,16.31
2019-04-03T11:53:07.144Z,16.25
2019-04-03T11:55:34.739Z,16.21
2019-04-03T11:58:04.791Z,16.14
2019-04-03T12:00:39.250Z,16.22
2019-04-03T12:03:10.713Z,16.38
2019-04-03T12:05:40.458Z,16.44
2019-04-03T12:08:12.427Z,16.51
2019-04-03T12:10:41.766Z,16.60
2019-04-03T12:13:13.560Z,16.52
2019-04-03T12:15:42.874Z,16.46
2019-04-03T12:18:12.871Z,16.33
2019-04-03T12:20:44.887Z,16.26
2019-04-03T12:23:14.042Z,16.23
2019-04-03T12:25:43.742Z,16.19
2019-04-03T12:28:13.407Z,16.15
2019-04-03T12:30:43.704Z,16.22
2019-04-03T12:33:13.671Z,16.31
2019-04-03T12:35:43.403Z,16.28
2019-04-03T12:38:13.540Z,16.20
2019-04-03T12:40:44.562Z,16.05
2019-04-03T12:43:14.403Z,16.06
2019-04-03T12:45:45.343Z,16.05
2019-04-03T12:48:17.159Z,16.04
2019-04-03T12:50:46.870Z,15.99
2019-04-03T12:53:17.317Z,15.95
2019-04-03T12:55:47.117Z,15.96
2019-04-03T12:58:16.804Z,15.96
2019-04-03T13:00:46.780Z,15.94
2019-04-03T13:03:16.949Z,15.85
2019-04-03T13:05:48.605Z,15.76
2019-04-03T13:08:20.266Z,15.86
2019-04-03T13:10:49.795Z,16.03
2019-04-03T13:13:19.454Z,16.14
2019-04-03T13:15:49.380Z,16.27
2019-04-03T13:18:20.087Z,16.49
2019-04-03T13:20:49.943Z,16.73
2019-04-03T13:23:20.199Z,16.90
2019-04-03T13:25:51.007Z,17.18
2019-04-03T13:28:21.632Z,17.30
2019-04-03T13:30:51.346Z,17.44
2019-04-03T13:33:21.153Z,17.39
2019-04-03T13:35:50.975Z,17.26
2019-04-03T13:38:20.819Z,17.17
2019-04-03T13:40:50.986Z,17.13
2019-04-03T13:43:21.924Z,17.09
2019-04-03T13:45:52.265Z,16.92
2019-04-03T13:48:22.003Z,16.76
2019-04-03T13:50:54.181Z,16.58
2019-04-03T13:53:25.391Z,16.32
2019-04-03T13:55:54.653Z,16.21
2019-04-03T13:58:27.024Z,16.11
2019-04-03T14:01:00.790Z,16.13
2019-04-03T14:03:27.946Z,16.21
2019-04-03T14:05:58.141Z,16.20
2019-04-03T14:08:28.041Z,16.21
2019-04-03T14:10:58.851Z,16.13
2019-04-03T14:13:28.873Z,16.06
2019-04-03T14:15:58.578Z,16.13
2019-04-03T14:18:28.461Z,16.21
2019-04-03T14:20:58.225Z,16.24
2019-04-03T14:23:27.904Z,16.32
2019-04-03T14:26:05.584Z,16.49
2019-04-03T14:28:28.997Z,16.54
2019-04-03T14:30:58.704Z,16.43
2019-04-03T14:33:41.271Z,16.24
2019-04-03T14:36:00.146Z,16.15
2019-04-03T14:38:32.385Z,16.09
2019-04-03T14:41:03.082Z,16.06
2019-04-03T14:43:34.436Z,15.99
2019-04-03T14:46:04.960Z,15.86
2019-04-03T14:48:34.813Z,15.84
2019-04-03T14:51:06.404Z,15.75
2019-04-03T14:53:36.214Z,15.68
2019-04-03T14:56:06.213Z,15.59
2019-04-03T14:58:37.117Z,15.55
2019-04-03T15:01:06.942Z,15.57
2019-04-03T15:03:37.115Z,15.56
2019-04-03T15:06:06.978Z,15.48
2019-04-03T15:08:37.018Z,15.44
2019-04-03T15:11:06.834Z,15.39
2019-04-03T15:13:36.729Z,15.38
2019-04-03T15:16:06.861Z,15.43
2019-04-03T15:18:37.160Z,15.55
2019-04-03T15:21:07.224Z,15.68
2019-04-03T15:23:40.432Z,15.66
2019-04-03T15:26:08.321Z,15.62
2019-04-03T15:28:38.361Z,15.56
2019-04-03T15:31:08.160Z,15.48
2019-04-03T15:33:37.877Z,15.36
2019-04-03T15:36:07.954Z,15.27
2019-04-03T15:38:37.647Z,15.18
2019-04-03T15:41:07.320Z,15.12
2019-04-03T15:43:37.194Z,15.08
2019-04-03T15:46:06.893Z,15.05
2019-04-03T15:48:38.531Z,15.02
2019-04-03T15:51:08.720Z,15.05
2019-04-03T15:53:38.416Z,15.09
2019-04-03T15:56:11.827Z,15.11
2019-04-03T15:58:39.735Z,15.12
2019-04-03T16:01:09.515Z,15.13
2019-04-03T16:03:39.214Z,15.11
2019-04-03T16:06:08.976Z,15.11
2019-04-03T16:08:39.078Z,15.09
2019-04-03T16:11:09.151Z,15.06
2019-04-03T16:13:38.924Z,15.05
2019-04-03T16:16:08.708Z,15.01
2019-04-03T16:18:39.023Z,14.99
2019-04-03T16:21:08.857Z,14.95
2019-04-03T16:23:38.775Z,14.92
2019-04-03T16:26:08.863Z,14.88
2019-04-03T16:28:38.736Z,14.85
2019-04-03T16:31:08.489Z,14.83
2019-04-03T16:33:38.196Z,14.82
2019-04-03T16:42:21.363Z,14.75
2019-04-03T16:44:53.201Z,14.66
2019-04-03T16:47:25.463Z,14.62
2019-04-03T16:49:55.989Z,14.57
2019-04-03T16:52:26.057Z,14.53
2019-04-03T16:54:55.997Z,14.49
2019-04-03T16:57:26.476Z,14.41
2019-04-03T16:59:56.573Z,14.35
2019-04-03T17:02:29.143Z,14.31
2019-04-03T17:04:58.469Z,14.22
2019-04-03T17:07:28.536Z,14.14
2019-04-03T17:09:58.279Z,14.04
2019-04-03T17:12:28.161Z,13.96
2019-04-03T17:14:58.121Z,13.86
2019-04-03T17:17:27.993Z,13.78
2019-04-03T17:19:57.970Z,13.71
2019-04-03T17:22:28.188Z,13.62
2019-04-03T17:24:58.049Z,13.55
2019-04-03T17:27:30.171Z,13.48
2019-04-03T17:29:59.619Z,13.40
2019-04-03T17:32:30.835Z,13.31
2019-04-03T17:35:01.432Z,13.23
2019-04-03T17:37:31.151Z,13.12
2019-04-03T17:40:01.038Z,13.04
2019-04-03T17:42:31.446Z,12.95
2019-04-03T17:45:35.262Z,12.88
2019-04-03T17:48:05.747Z,12.74
2019-04-03T17:50:35.487Z,12.65
2019-04-03T17:53:06.640Z,12.58
2019-04-03T17:55:37.777Z,12.50
2019-04-03T17:58:07.566Z,12.42
2019-04-03T18:00:37.453Z,12.33
2019-04-03T18:03:07.188Z,12.28
2019-04-03T18:05:37.043Z,12.21
2019-04-03T18:08:07.269Z,12.13
2019-04-03T18:10:37.483Z,12.03
2019-04-03T18:13:07.443Z,11.87
2019-04-03T18:15:37.193Z,11.79
2019-04-03T18:18:07.072Z,11.71
2019-04-03T18:20:37.408Z,11.62
2019-04-03T18:23:07.351Z,11.50
2019-04-03T18:25:37.086Z,11.39
2019-04-03T18:28:06.951Z,11.27
2019-04-03T18:30:36.816Z,11.17
2019-04-03T18:33:06.686Z,11.09
2019-04-03T18:35:36.599Z,10.99
2019-04-03T18:38:08.044Z,10.95
2019-04-03T18:40:41.967Z,10.92
2019-04-03T18:43:11.975Z,10.97
2019-04-03T18:45:41.861Z,11.08
2019-04-03T18:48:12.707Z,11.19
2019-04-03T18:50:42.671Z,11.37
2019-04-03T18:53:12.576Z,11.51
2019-04-03T18:55:44.629Z,11.69
2019-04-03T18:58:14.139Z,11.81
2019-04-03T19:00:44.074Z,11.91
2019-04-03T19:03:14.042Z,11.94
2019-04-03T19:05:43.978Z,11.96
2019-04-03T19:08:17.793Z,11.97
2019-04-03T19:10:47.272Z,11.96
2019-04-03T19:13:17.387Z,11.92
2019-04-03T19:15:47.405Z,11.86
2019-04-03T19:18:19.850Z,11.82
2019-04-03T19:20:48.915Z,11.78
2019-04-03T19:23:18.729Z,11.77
2019-04-03T19:25:48.831Z,11.78
2019-04-03T19:28:18.827Z,11.79
2019-04-03T19:30:49.616Z,11.81
2019-04-03T19:33:19.687Z,11.84
2019-04-03T19:35:49.820Z,11.86
2019-04-03T19:38:19.930Z,11.92
2019-04-03T19:40:49.888Z,11.91
2019-04-03T19:43:19.942Z,11.92
2019-04-03T19:45:51.672Z,11.91
2019-04-03T19:48:21.645Z,11.87
2019-04-03T19:50:51.410Z,11.84
2019-04-03T19:53:21.370Z,11.82
2019-04-03T19:55:54.479Z,11.84
2019-04-03T19:58:23.367Z,11.83
2019-04-03T20:00:53.247Z,11.83
2019-04-03T20:03:23.236Z,11.82
2019-04-03T20:05:55.076Z,11.82
2019-04-03T20:08:24.974Z,11.81
2019-04-03T20:10:54.963Z,11.79
2019-04-03T20:13:27.859Z,11.77
2019-04-03T20:15:56.582Z,11.73
2019-04-03T20:18:26.641Z,11.71
2019-04-03T20:20:56.567Z,11.71
2019-04-03T20:23:26.376Z,11.73
2019-04-03T20:25:56.179Z,11.71
2019-04-03T20:28:26.247Z,11.71
2019-04-03T20:30:56.158Z,11.71
2019-04-03T20:33:26.182Z,11.66
2019-04-03T20:35:56.149Z,11.62
2019-04-03T20:38:27.512Z,11.57
2019-04-03T20:40:57.732Z,11.52
2019-04-03T20:43:27.488Z,11.47
2019-04-03T20:45:57.357Z,11.47
2019-04-03T20:48:28.301Z,11.48
2019-04-03T20:50:58.671Z,11.51
2019-04-03T20:53:28.537Z,11.56
2019-04-03T20:55:58.741Z,11.60
2019-04-03T20:58:28.535Z,11.63
2019-04-03T21:01:06.861Z,11.66
2019-04-03T21:03:30.048Z,11.70
2019-04-03T21:05:59.932Z,11.73
2019-04-03T21:08:31.552Z,11.77
2019-04-03T21:11:02.378Z,11.78
2019-04-03T21:13:32.681Z,11.79
2019-04-03T21:16:02.769Z,11.81
2019-04-03T21:18:32.608Z,11.85
2019-04-03T21:21:02.588Z,11.87
2019-04-03T21:23:33.507Z,11.90
2019-04-03T21:26:06.613Z,11.97
2019-04-03T21:28:35.517Z,12.00
2019-04-03T21:31:11.445Z,12.02
2019-04-03T21:33:41.318Z,12.02
2019-04-03T21:36:11.106Z,12.03
2019-04-03T21:38:41.727Z,12.04
2019-04-03T21:41:12.076Z,12.04
2019-04-03T21:43:41.854Z,12.05
2019-04-03T21:46:12.097Z,12.04
2019-04-03T21:48:44.475Z,12.02
2019-04-03T21:51:13.364Z,12.02
2019-04-03T21:53:43.057Z,12.04
2019-04-03T21:56:13.872Z,12.02
2019-04-03T21:58:43.713Z,12.02
2019-04-03T22:01:25.927Z,12.00
2019-04-03T22:03:55.780Z,11.95
2019-04-03T22:06:27.813Z,11.93
2019-04-03T22:09:00.516Z,11.89
2019-04-03T22:11:29.680Z,11.86
2019-04-03T22:13:59.432Z,11.83
2019-04-03T22:16:29.226Z,11.77
2019-04-03T22:18:59.972Z,11.66
2019-04-03T22:21:32.202Z,11.55
2019-04-03T22:24:01.393Z,11.47
2019-04-03T22:26:31.649Z,11.37
2019-04-03T22:29:01.751Z,11.34
2019-04-03T22:31:32.167Z,11.27
2019-04-03T22:34:02.169Z,11.22
2019-04-03T22:36:33.695Z,11.20
2019-04-03T22:39:04.144Z,11.17
2019-04-03T22:41:35.609Z,11.14
2019-04-03T22:44:06.025Z,11.16
2019-04-03T22:46:36.018Z,11.19
2019-04-03T22:49:07.215Z,11.19
2019-04-03T22:51:37.703Z,11.23
2019-04-03T22:54:10.877Z,11.25
2019-04-03T22:56:41.209Z,11.28
2019-04-03T22:59:11.042Z,11.34
2019-04-03T23:01:40.785Z,11.40
2019-04-03T23:04:14.099Z,11.48
2019-04-03T23:06:44.478Z,11.52
2019-04-03T23:09:14.368Z,11.57
2019-04-03T23:11:45.368Z,11.61
2019-04-03T23:14:15.086Z,11.50
2019-04-03T23:16:44.898Z,11.50
2019-04-03T23:19:17.629Z,11.50
2019-04-03T23:21:46.033Z,11.64
2019-04-03T23:24:15.775Z,11.61
2019-04-03T23:26:45.523Z,11.55
2019-04-03T23:29:15.156Z,11.50
2019-04-03T23:31:45.471Z,11.46
2019-04-03T23:34:18.839Z,11.39
2019-04-03T23:36:46.850Z,11.29
2019-04-03T23:39:16.614Z,11.15
2019-04-03T23:41:46.334Z,11.05
2019-04-03T23:44:15.992Z,10.95
2019-04-03T23:46:46.078Z,10.89
2019-04-03T23:49:15.892Z,10.89
2019-04-03T23:51:45.647Z,10.85
2019-04-03T23:54:15.533Z,10.77
2019-04-03T23:56:45.397Z,10.61
2019-04-03T23:59:15.120Z,10.45
